Calgary International Airport
CYYC : now visible

Airfield :











YOU CAN JOIN US ON...

 
LOGIN :

Register | Disclaimer

   EN    FR    IT 

 









Legend :    VFR   Marginal VFR   IFR   Intensive IFR   Very Intensive IFR
Visi :
Ceiling :
>= 8 km
>= 3000ft
5 to 8 km
1000 to 3000 ft
1500m to 5 km
500 to 1000 ft
800 to 1500m
200 to 500 ft
< 800m
< 200 ft
Symbols :   Thunderstorms  Fog  Heavy snow  Heavy precipitations  Wind > 20 kt






- Airport Elevation : 3557 ft
- IATA code : YYC


CYYC - Calgary International

CURRENT METAR :
  • 161100Z 33004KT 320V020 15SM R35R/3000VP6000FT/U FEW072 BKN140 18/14 A3007 RMK AC2AC3 SLP170 DENSITY ALT 4600FT

EXPIRED METARs :
  • 161000Z 36004KT 300V060 15SM FEW056CB SCT074 BKN110 19/14 A3007 RMK CB1AC3AC4 CB TR CB NE-E SLP167 DENSITY ALT 4800FT
  • 160900Z 01004KT 15SM FEW056CB BKN068 BKN110 18/14 A3006 RMK CB1AC5AC2 CB TR CB N-SE MOVG SE/OCNL LTGICCG NE-E SLP164 DENSITY ALT 4700FT
  • 160848Z 35003KT 15SM FEW056CB BKN110 18/14 A3005 RMK CB1AC5 CB TR CB N-SE MOVG SE/OCNL LTGICCG NE-E SLP161 DENSITY ALT 4700FT
  • 160800Z VRB02KT 15SM TS FEW056CB BKN110 BKN190 21/14 A3004 RMK CB1AC5AC1 CB TR CB N AND E MOVG SE/OCNL LTGICCG N AND FREQ LTGICCG E SLP155 DENSITY ALT 5100FT
  • 160700Z 18003KT 15SM FEW056CB BKN110 22/14 A3004 RMK CB1AC5 CB TR DIST SH NE/FREQ LTGICCG NE/CB N-NE MOVG S SLP153 DENSITY ALT 5100FT

TAF TAF CYYC
Valid from the 16 at 12:00 until the 17 at 12:00 UTC


161143Z 1612/1712 VRB03KT P6SM FEW080 BKN140
FM161400 VRB03KT P6SM FEW140
BECMG 1616/1618 16008KT
FM161900 16010G20KT P6SM FEW070
FM162300 15010G20KT P6SM FEW080CB BKN220
FM170400 16006KT P6SM FEW100 BKN220 RMK NXT FCST BY 161500Z
CZEG FIR / North America



MET'MAP, your aeronautical weather chart ! - Copyright ORBIFLY December 2007 - Disclaimer

ORBIFLY MET'MAP TEAM :

Programming & Development : Alexandra Zaïnal
Original concept : Baudouin d'Aumeries
Technical & hardware support : Manuel Goepfert
Assistance : Marc-Olivier Méhu




SOURCES & CREDITS :

   NOAA       Earth
Advisory